»·PEaware :: N4D KRDD-KMFR

N4D :: KRDD-KMFR

FLIGHT INFORMATION

Flight Status: Arrived
Operator: Privately registered:
United States
More flights under this callsign
Pilot: Alec D. (17934)
Aircraft: CESSNA 441 CONQUEST 2
(C441)
More flights by this aircraft type
Origin: KRDD Redding Mun
United States
Destination: KMFR Rogue Valley Intl-Medford
United States
More flights between these airports :: More routes between these airports
Route: +KREST3 SHATA V23 OED
File this flight plan on PilotEdge
Remarks:
Altitude:
(Current/Filed)
12,000ft
Speed:
(Current/Filed)
260kts
Departed: 06-Nov-18 12:41 PM
Arrived: 06-Nov-18 01:19 PM
Distance/Time
Traveled:
115nm/0:38
Distance/Time
To Go:
Arrived

Flight Plot

Page will automatically refresh every two minutes.

Flight plan parsing failed; only flown route is shown


Map Options




Map Legend


Flown Route
Filed Route
Departure Airport
Arrival Airport
Navaid (VOR, NDB)
Fix

Horizontal Profiles

Position Reports

Time Latitude Longitude Heading Altitude Ground
Speed
06-Nov-18 12:22 40.508292 -122.299624 89 505ft 0kts
06-Nov-18 12:23 40.508292 -122.299624 89 505ft 0kts
06-Nov-18 12:24 40.508292 -122.299624 89 505ft 0kts
06-Nov-18 12:25 40.508292 -122.299624 89 505ft 0kts
06-Nov-18 12:26 40.508292 -122.299624 89 505ft 0kts
06-Nov-18 12:27 40.508292 -122.299624 89 505ft 0kts
06-Nov-18 12:28 40.508292 -122.299621 89 505ft 0kts
06-Nov-18 12:29 40.508292 -122.299615 89 505ft 0kts
06-Nov-18 12:30 40.508292 -122.299609 89 505ft 0kts
06-Nov-18 12:31 40.508292 -122.299603 89 505ft 0kts
06-Nov-18 12:32 40.508292 -122.299596 89 505ft 0kts
06-Nov-18 12:33 40.508292 -122.299590 89 505ft 0kts
06-Nov-18 12:34 40.508292 -122.299584 88 505ft 0kts
06-Nov-18 12:35 40.508292 -122.299576 88 505ft 0kts
06-Nov-18 12:36 40.508292 -122.299568 88 505ft 0kts
06-Nov-18 12:37 40.508292 -122.299560 88 505ft 0kts
06-Nov-18 12:38 40.508293 -122.299552 88 505ft 0kts
06-Nov-18 12:39 40.506965 -122.298506 151 505ft 13kts
06-Nov-18 12:40 40.503410 -122.297573 170 505ft 21kts
06-Nov-18 12:41 40.501863 -122.295810 121 505ft 0kts
06-Nov-18 12:42 40.501849 -122.295779 121 505ft 1kts
06-Nov-18 12:43 40.502482 -122.294898 0 505ft 34kts
06-Nov-18 12:44 40.530359 -122.294240 8 1237ft 129kts
06-Nov-18 12:45 40.565988 -122.281663 12 3693ft 133kts
06-Nov-18 12:46 40.601442 -122.265929 16 6479ft 132kts
06-Nov-18 12:47 40.640231 -122.251388 11 8579ft 154kts
06-Nov-18 12:48 40.684431 -122.238994 352 10278ft 168kts
06-Nov-18 12:49 40.704094 -122.288480 273 11879ft 183kts
06-Nov-18 12:50 40.697201 -122.363587 259 12039ft 225kts
06-Nov-18 12:51 40.676445 -122.444350 278 12024ft 231kts
06-Nov-18 12:52 40.720674 -122.495971 341 12041ft 232kts
06-Nov-18 12:53 40.782419 -122.521764 339 12053ft 234kts
06-Nov-18 12:54 40.844458 -122.547995 339 12060ft 234kts
06-Nov-18 12:55 40.906668 -122.574345 339 12067ft 234kts
06-Nov-18 12:56 40.968478 -122.600572 339 12079ft 233kts
06-Nov-18 12:57 41.030346 -122.626887 339 12086ft 233kts
06-Nov-18 12:58 41.091929 -122.653118 338 12104ft 233kts
06-Nov-18 12:59 41.153522 -122.679414 338 12105ft 232kts
06-Nov-18 13:00 41.215184 -122.705775 338 12113ft 232kts
06-Nov-18 13:01 41.276467 -122.732031 339 12120ft 231kts
06-Nov-18 13:02 41.337808 -122.758355 338 12141ft 230kts
06-Nov-18 13:03 41.398757 -122.784580 338 12156ft 230kts
06-Nov-18 13:04 41.460179 -122.808246 350 12161ft 233kts
06-Nov-18 13:05 41.525031 -122.814277 351 12172ft 233kts
06-Nov-18 13:06 41.589619 -122.820790 350 12172ft 233kts
06-Nov-18 13:07 41.654111 -122.827375 350 12174ft 232kts
06-Nov-18 13:08 41.718556 -122.833991 350 12179ft 231kts
06-Nov-18 13:09 41.782896 -122.840590 350 12182ft 232kts
06-Nov-18 13:10 41.847412 -122.847244 350 12187ft 232kts
06-Nov-18 13:11 41.911910 -122.853863 350 12190ft 233kts
06-Nov-18 13:12 41.976386 -122.860505 350 12190ft 232kts
06-Nov-18 13:13 42.040805 -122.867167 350 12200ft 230kts
06-Nov-18 13:14 42.104418 -122.874351 344 12191ft 227kts
06-Nov-18 13:15 42.162981 -122.906512 332 10711ft 225kts
06-Nov-18 13:16 42.220111 -122.941755 342 8569ft 223kts
06-Nov-18 13:17 42.281417 -122.950151 6 5930ft 226kts
06-Nov-18 13:18 42.343803 -122.940478 7 3149ft 224kts
06-Nov-18 13:19 42.391629 -122.938827 354 2898ft 142kts
06-Nov-18 13:20 42.418057 -122.914914 96 2284ft 146kts
06-Nov-18 13:21 42.393413 -122.883106 157 1540ft 122kts
06-Nov-18 13:22 42.376389 -122.874340 232 1338ft 8kts
06-Nov-18 13:23 42.375816 -122.875272 171 1338ft 5kts
06-Nov-18 13:24 42.372126 -122.873671 255 1338ft 5kts
06-Nov-18 13:25 42.372201 -122.876769 291 1338ft 12kts
06-Nov-18 13:26 42.371704 -122.878140 304 1338ft 0kts
06-Nov-18 13:27 42.371704 -122.878140 304 1338ft 0kts
06-Nov-18 13:28 42.371704 -122.878140 304 1338ft 0kts
06-Nov-18 13:29 42.371704 -122.878140 304 1338ft 0kts

Navigation Log

Ident Type
Flight plan parsing failed, navigation log unavailable